createdAt,value
2023-04-09T00:02:15.168Z,100.00
2023-04-09T00:04:45.714Z,100.00
2023-04-09T00:07:14.814Z,100.00
2023-04-09T00:09:43.714Z,100.00
2023-04-09T00:12:13.326Z,100.00
2023-04-09T00:14:42.361Z,100.00
2023-04-09T00:17:12.043Z,100.00
2023-04-09T00:19:41.241Z,100.00
2023-04-09T00:22:12.153Z,100.00
2023-04-09T00:24:41.512Z,100.00
2023-04-09T00:27:10.559Z,100.00
2023-04-09T00:29:39.584Z,100.00
2023-04-09T00:32:08.889Z,100.00
2023-04-09T00:34:38.918Z,100.00
2023-04-09T00:37:08.056Z,100.00
2023-04-09T00:39:38.325Z,100.00
2023-04-09T00:42:07.592Z,100.00
2023-04-09T00:44:38.246Z,100.00
2023-04-09T00:47:07.369Z,100.00
2023-04-09T00:49:36.464Z,100.00
2023-04-09T00:52:06.934Z,100.00
2023-04-09T00:54:36.073Z,100.00
2023-04-09T00:57:06.601Z,100.00
2023-04-09T00:59:35.967Z,100.00
2023-04-09T01:02:05.818Z,100.00
2023-04-09T01:04:36.154Z,100.00
2023-04-09T01:07:13.026Z,100.00
2023-04-09T01:09:49.277Z,100.00
2023-04-09T01:12:29.342Z,100.00
2023-04-09T01:15:04.818Z,100.00
2023-04-09T01:17:39.697Z,100.00
2023-04-09T01:20:13.518Z,100.00
2023-04-09T01:22:53.937Z,100.00
2023-04-09T01:25:38.821Z,100.00
2023-04-09T01:28:20.639Z,100.00
2023-04-09T01:30:55.944Z,100.00
2023-04-09T01:33:29.350Z,100.00
2023-04-09T01:36:00.387Z,100.00
2023-04-09T01:38:30.108Z,100.00
2023-04-09T01:41:01.357Z,100.00
2023-04-09T01:43:33.424Z,100.00
2023-04-09T01:46:04.236Z,100.00
2023-04-09T01:48:35.404Z,100.00
2023-04-09T01:51:07.312Z,100.00
2023-04-09T01:53:36.710Z,100.00
2023-04-09T01:56:06.524Z,100.00
2023-04-09T01:58:39.042Z,100.00
2023-04-09T02:01:13.956Z,100.00
2023-04-09T02:03:52.710Z,100.00
2023-04-09T02:06:31.211Z,100.00
2023-04-09T02:09:02.885Z,100.00
2023-04-09T02:11:34.795Z,100.00
2023-04-09T02:14:06.067Z,100.00
2023-04-09T02:16:36.552Z,100.00
2023-04-09T02:19:09.024Z,100.00
2023-04-09T02:21:38.197Z,100.00
2023-04-09T02:24:08.036Z,100.00
2023-04-09T02:26:37.312Z,100.00
2023-04-09T02:29:08.321Z,100.00
2023-04-09T02:31:39.853Z,100.00
2023-04-09T02:34:09.319Z,100.00
2023-04-09T02:36:38.528Z,100.00
2023-04-09T02:39:07.821Z,100.00
2023-04-09T02:41:36.821Z,100.00
2023-04-09T02:44:07.650Z,100.00
2023-04-09T02:46:39.775Z,100.00
2023-04-09T02:49:09.531Z,100.00
2023-04-09T02:51:42.732Z,100.00
2023-04-09T02:54:12.435Z,100.00
2023-04-09T02:56:41.545Z,100.00
2023-04-09T02:59:13.980Z,100.00
2023-04-09T03:01:45.691Z,100.00
2023-04-09T03:04:16.246Z,100.00
2023-04-09T03:06:45.881Z,100.00
2023-04-09T03:09:15.394Z,100.00
2023-04-09T03:11:44.749Z,100.00
2023-04-09T03:14:15.500Z,100.00
2023-04-09T03:16:44.651Z,100.00
2023-04-09T03:19:15.392Z,100.00
2023-04-09T03:21:44.688Z,100.00
2023-04-09T03:24:14.108Z,100.00
2023-04-09T03:26:43.870Z,100.00
2023-04-09T03:29:15.656Z,100.00
2023-04-09T03:31:47.599Z,100.00
2023-04-09T03:34:18.278Z,100.00
2023-04-09T03:36:53.923Z,100.00
2023-04-09T03:39:31.016Z,100.00
2023-04-09T03:42:03.977Z,100.00
2023-04-09T03:44:47.980Z,100.00
2023-04-09T03:47:25.020Z,100.00
2023-04-09T03:49:55.426Z,100.00
2023-04-09T03:52:28.814Z,100.00
2023-04-09T03:55:07.149Z,100.00
2023-04-09T03:57:36.453Z,100.00
2023-04-09T04:00:10.400Z,100.00
2023-04-09T04:02:52.654Z,100.00
2023-04-09T04:05:41.335Z,100.00
2023-04-09T04:08:15.053Z,100.00
2023-04-09T04:10:44.407Z,100.00
2023-04-09T04:13:17.249Z,100.00
2023-04-09T04:15:57.004Z,100.00
2023-04-09T04:18:26.787Z,100.00
2023-04-09T04:20:56.959Z,100.00
2023-04-09T04:23:26.494Z,100.00
2023-04-09T04:26:17.880Z,100.00
2023-04-09T04:28:47.076Z,100.00
2023-04-09T04:31:28.663Z,100.00
2023-04-09T04:34:03.069Z,100.00
2023-04-09T04:36:32.735Z,100.00
2023-04-09T04:39:02.141Z,100.00
2023-04-09T04:41:36.891Z,100.00
2023-04-09T04:44:16.164Z,100.00
2023-04-09T04:46:51.480Z,100.00
2023-04-09T04:49:21.453Z,100.00
2023-04-09T04:51:53.457Z,100.00
2023-04-09T04:54:26.308Z,100.00
2023-04-09T04:57:01.326Z,100.00
2023-04-09T04:59:38.817Z,100.00
2023-04-09T05:02:11.914Z,100.00
2023-04-09T05:04:53.037Z,100.00
2023-04-09T05:07:27.776Z,100.00
2023-04-09T05:10:00.641Z,100.00
2023-04-09T05:12:37.052Z,100.00
2023-04-09T05:15:10.298Z,100.00
2023-04-09T05:17:44.223Z,100.00
2023-04-09T05:20:14.867Z,100.00
2023-04-09T05:22:55.061Z,100.00
2023-04-09T05:25:30.875Z,100.00
2023-04-09T05:28:01.545Z,100.00
2023-04-09T05:30:33.503Z,100.00
2023-04-09T05:33:07.497Z,100.00
2023-04-09T05:35:41.143Z,100.00
2023-04-09T05:38:11.286Z,100.00
2023-04-09T05:40:42.429Z,100.00
2023-04-09T05:43:15.246Z,100.00
2023-04-09T05:45:46.515Z,100.00
2023-04-09T05:48:18.544Z,100.00
2023-04-09T05:50:55.165Z,100.00
2023-04-09T05:53:28.340Z,100.00
2023-04-09T05:55:58.944Z,100.00
2023-04-09T05:58:33.071Z,100.00
2023-04-09T06:01:02.728Z,100.00
2023-04-09T06:03:33.766Z,100.00
2023-04-09T06:06:04.014Z,100.00
2023-04-09T06:08:33.246Z,100.00
2023-04-09T06:11:13.525Z,100.00
2023-04-09T06:13:43.313Z,100.00
2023-04-09T06:16:12.923Z,100.00
2023-04-09T06:18:46.088Z,100.00
2023-04-09T06:21:15.531Z,100.00
2023-04-09T06:23:45.426Z,100.00
2023-04-09T06:26:14.715Z,100.00
2023-04-09T06:28:44.402Z,100.00
2023-04-09T06:31:37.158Z,100.00
2023-04-09T06:34:08.293Z,100.00
2023-04-09T06:36:40.622Z,100.00
2023-04-09T06:39:10.135Z,100.00
2023-04-09T06:41:40.082Z,100.00
2023-04-09T06:44:24.741Z,100.00
2023-04-09T06:46:56.341Z,100.00
2023-04-09T06:49:29.015Z,100.00
2023-04-09T06:51:58.639Z,100.00
2023-04-09T06:54:28.052Z,100.00
2023-04-09T06:56:57.449Z,100.00
2023-04-09T06:59:26.976Z,100.00
2023-04-09T07:01:58.168Z,100.00
2023-04-09T07:04:29.008Z,100.00
2023-04-09T07:06:59.411Z,100.00
2023-04-09T07:09:28.682Z,100.00
2023-04-09T07:11:58.061Z,100.00
2023-04-09T07:14:29.824Z,100.00
2023-04-09T07:16:59.079Z,100.00
2023-04-09T07:19:29.871Z,100.00
2023-04-09T07:21:59.339Z,100.00
2023-04-09T07:24:28.717Z,100.00
2023-04-09T07:26:57.977Z,100.00
2023-04-09T07:29:27.399Z,100.00
2023-04-09T07:32:01.347Z,100.00
2023-04-09T07:34:32.404Z,100.00
2023-04-09T07:37:02.037Z,100.00
2023-04-09T07:39:31.453Z,100.00
2023-04-09T07:42:06.084Z,100.00
2023-04-09T07:44:47.783Z,100.00
2023-04-09T07:47:18.974Z,100.00
2023-04-09T07:49:52.066Z,100.00
2023-04-09T07:52:21.438Z,100.00
2023-04-09T07:54:54.187Z,100.00
2023-04-09T07:57:23.851Z,100.00
2023-04-09T07:59:54.325Z,100.00
2023-04-09T08:02:24.480Z,100.00
2023-04-09T08:04:55.233Z,100.00
2023-04-09T08:07:27.782Z,100.00
2023-04-09T08:09:57.104Z,100.00
2023-04-09T08:12:26.515Z,100.00
2023-04-09T08:14:56.211Z,100.00
2023-04-09T08:17:25.997Z,100.00
2023-04-09T08:19:56.852Z,100.00
2023-04-09T08:22:26.275Z,100.00
2023-04-09T08:24:56.553Z,100.00
2023-04-09T08:27:26.187Z,100.00
2023-04-09T08:29:55.707Z,100.00
2023-04-09T08:32:25.674Z,100.00
2023-04-09T08:34:58.206Z,100.00
2023-04-09T08:37:27.724Z,100.00
2023-04-09T08:39:57.508Z,100.00
2023-04-09T08:42:35.664Z,100.00
2023-04-09T08:45:06.055Z,85.75
2023-04-09T08:47:42.299Z,81.49
2023-04-09T08:50:20.696Z,86.52
2023-04-09T08:52:51.140Z,84.44
2023-04-09T08:55:20.541Z,83.00
2023-04-09T08:57:51.777Z,68.58
2023-04-09T09:00:21.320Z,67.11
2023-04-09T09:03:05.826Z,64.75
2023-04-09T09:05:41.199Z,66.27
2023-04-09T09:08:11.307Z,59.13
2023-04-09T09:10:42.517Z,59.24
2023-04-09T09:13:18.824Z,56.69
2023-04-09T09:15:50.717Z,59.61
2023-04-09T09:18:23.356Z,58.21
2023-04-09T09:20:54.456Z,56.96
2023-04-09T09:23:37.202Z,57.70
2023-04-09T09:26:14.371Z,58.85
2023-04-09T09:28:43.739Z,53.15
2023-04-09T09:31:14.355Z,52.14
2023-04-09T09:33:44.296Z,50.39
2023-04-09T09:36:15.124Z,52.36
2023-04-09T09:38:55.780Z,51.09
2023-04-09T09:41:26.342Z,48.41
2023-04-09T09:43:55.881Z,50.01
2023-04-09T09:46:27.597Z,48.55
2023-04-09T09:48:57.986Z,46.85
2023-04-09T09:51:29.104Z,46.11
2023-04-09T09:53:59.475Z,49.60
2023-04-09T09:56:33.695Z,49.35
2023-04-09T09:59:08.098Z,47.49
2023-04-09T10:01:38.290Z,46.60
2023-04-09T10:04:13.766Z,45.08
2023-04-09T10:06:46.187Z,47.21
2023-04-09T10:09:19.226Z,46.19
2023-04-09T10:11:50.272Z,45.43
2023-04-09T10:14:20.057Z,45.55
2023-04-09T10:16:49.396Z,46.57
2023-04-09T10:19:19.259Z,45.92
2023-04-09T10:22:06.771Z,43.32
2023-04-09T10:24:36.961Z,42.24
2023-04-09T10:28:08.975Z,40.29
2023-04-09T10:30:41.260Z,41.67
2023-04-09T10:33:12.464Z,45.09
2023-04-09T10:35:42.398Z,46.89
2023-04-09T10:38:20.619Z,45.78
2023-04-09T10:40:52.053Z,38.16
2023-04-09T10:43:22.408Z,42.55
2023-04-09T10:45:53.691Z,41.84
2023-04-09T10:48:26.154Z,44.09
2023-04-09T10:50:55.448Z,46.45
2023-04-09T10:53:27.701Z,46.80
2023-04-09T10:55:57.497Z,48.99
2023-04-09T10:58:27.188Z,48.45
2023-04-09T11:00:59.710Z,48.66
2023-04-09T11:03:30.737Z,46.89
2023-04-09T11:06:03.029Z,46.47
2023-04-09T11:08:35.214Z,37.52
2023-04-09T11:11:04.657Z,36.35
2023-04-09T11:13:35.393Z,33.32
2023-04-09T11:16:07.310Z,29.60
2023-04-09T11:18:37.482Z,30.44
2023-04-09T11:21:09.787Z,32.21
2023-04-09T11:23:40.364Z,29.08
2023-04-09T11:26:11.410Z,30.85
2023-04-09T11:28:43.652Z,30.91
2023-04-09T11:31:13.234Z,29.92
2023-04-09T11:33:42.895Z,33.49
2023-04-09T11:36:13.094Z,33.87
2023-04-09T11:38:44.360Z,32.77
2023-04-09T11:41:14.297Z,34.15
2023-04-09T11:43:43.741Z,34.96
2023-04-09T11:46:13.061Z,36.38
2023-04-09T11:48:42.345Z,38.22
2023-04-09T11:51:14.514Z,40.33
2023-04-09T11:53:45.133Z,37.90
2023-04-09T11:56:14.345Z,34.94
2023-04-09T11:58:47.755Z,38.82
2023-04-09T12:01:17.691Z,34.60
2023-04-09T12:03:54.627Z,30.90
2023-04-09T12:06:25.706Z,30.00
2023-04-09T12:08:57.914Z,29.06
2023-04-09T12:11:30.234Z,29.11
2023-04-09T12:14:03.001Z,27.10
2023-04-09T12:16:34.278Z,26.30
2023-04-09T12:19:04.287Z,25.39
2023-04-09T12:21:47.941Z,26.44
2023-04-09T12:24:22.928Z,27.54
2023-04-09T12:26:52.909Z,33.77
2023-04-09T12:29:23.082Z,38.37
2023-04-09T12:31:53.959Z,38.98
2023-04-09T12:34:23.439Z,37.72
2023-04-09T12:36:52.781Z,37.21
2023-04-09T12:39:26.212Z,40.24
2023-04-09T12:41:55.858Z,40.39
2023-04-09T12:44:25.438Z,41.73
2023-04-09T12:46:55.449Z,42.88
2023-04-09T12:49:34.005Z,43.49
2023-04-09T12:52:03.270Z,44.91
2023-04-09T12:54:33.760Z,45.46
2023-04-09T12:57:02.997Z,45.94
2023-04-09T12:59:32.394Z,44.23
2023-04-09T13:02:02.258Z,37.99
2023-04-09T13:04:31.668Z,32.80
2023-04-09T13:07:01.152Z,32.21
2023-04-09T13:09:30.626Z,31.43
2023-04-09T13:12:01.467Z,33.51
2023-04-09T13:14:30.837Z,33.09
2023-04-09T13:17:00.380Z,36.08
2023-04-09T13:19:29.667Z,37.92
2023-04-09T13:21:58.902Z,38.09
2023-04-09T13:24:31.451Z,39.56
2023-04-09T13:27:02.320Z,41.08
2023-04-09T13:29:31.486Z,42.84
2023-04-09T13:32:02.612Z,42.83
2023-04-09T13:34:31.923Z,44.68
2023-04-09T13:37:01.913Z,47.07
2023-04-09T13:39:31.300Z,47.39
2023-04-09T13:42:07.331Z,47.29
2023-04-09T13:44:45.006Z,48.69
2023-04-09T13:47:16.037Z,49.47
2023-04-09T13:49:45.447Z,50.42
2023-04-09T13:52:16.196Z,51.16
2023-04-09T13:54:46.346Z,53.89
2023-04-09T13:57:17.240Z,55.93
2023-04-09T13:59:47.962Z,75.42
2023-04-09T14:02:18.279Z,88.11
2023-04-09T14:04:47.598Z,91.27
2023-04-09T14:07:16.907Z,100.00
2023-04-09T14:09:46.481Z,100.00
2023-04-09T14:12:17.361Z,100.00
2023-04-09T14:14:46.769Z,100.00
2023-04-09T14:17:16.294Z,100.00
2023-04-09T14:19:45.535Z,100.00
2023-04-09T14:22:14.876Z,100.00
2023-04-09T14:24:44.534Z,100.00
2023-04-09T14:27:13.727Z,100.00
2023-04-09T14:29:44.809Z,100.00
2023-04-09T14:32:16.888Z,100.00
2023-04-09T14:34:46.350Z,100.00
2023-04-09T14:37:15.491Z,100.00
2023-04-09T14:40:03.891Z,100.00
2023-04-09T14:42:33.203Z,100.00
2023-04-09T14:45:05.474Z,100.00
2023-04-09T14:47:38.043Z,100.00
2023-04-09T14:50:11.324Z,100.00
2023-04-09T14:52:41.226Z,100.00
2023-04-09T14:55:15.948Z,100.00
2023-04-09T14:57:47.240Z,100.00
2023-04-09T15:00:18.877Z,100.00
2023-04-09T15:02:48.780Z,100.00
2023-04-09T15:05:19.652Z,100.00
2023-04-09T15:07:51.307Z,100.00
2023-04-09T15:10:20.689Z,100.00
2023-04-09T15:12:50.903Z,100.00
2023-04-09T15:15:21.657Z,100.00
2023-04-09T15:17:51.789Z,100.00
2023-04-09T15:20:21.284Z,100.00
2023-04-09T15:22:50.402Z,100.00
2023-04-09T15:25:24.143Z,100.00
2023-04-09T15:27:53.759Z,100.00
2023-04-09T15:30:24.523Z,100.00
2023-04-09T15:32:54.430Z,100.00
2023-04-09T15:35:26.878Z,100.00
2023-04-09T15:38:00.617Z,100.00
2023-04-09T15:40:31.468Z,100.00
2023-04-09T15:43:03.209Z,100.00
2023-04-09T15:45:34.259Z,100.00
2023-04-09T15:48:03.996Z,100.00
2023-04-09T15:50:33.340Z,100.00
2023-04-09T15:53:05.509Z,100.00
2023-04-09T15:55:34.694Z,100.00
2023-04-09T15:58:04.226Z,100.00
2023-04-09T16:00:54.274Z,100.00
2023-04-09T16:03:41.744Z,100.00
2023-04-09T16:06:23.211Z,100.00
2023-04-09T16:08:58.712Z,100.00
2023-04-09T16:11:31.874Z,100.00
2023-04-09T16:14:01.350Z,100.00
2023-04-09T16:16:33.729Z,100.00
2023-04-09T16:19:03.399Z,100.00
2023-04-09T16:21:32.622Z,100.00
2023-04-09T16:24:03.253Z,100.00
2023-04-09T16:26:35.035Z,100.00
2023-04-09T16:29:06.993Z,100.00
2023-04-09T16:31:39.227Z,100.00
2023-04-09T16:34:11.894Z,100.00
2023-04-09T16:36:47.406Z,100.00
2023-04-09T16:39:16.429Z,100.00
2023-04-09T16:41:49.591Z,100.00
2023-04-09T16:44:19.442Z,100.00
2023-04-09T16:46:50.681Z,100.00
2023-04-09T16:49:23.214Z,100.00
2023-04-09T16:51:54.106Z,100.00
2023-04-09T16:54:23.690Z,100.00
2023-04-09T16:56:53.321Z,100.00
2023-04-09T16:59:30.804Z,100.00
2023-04-09T17:02:03.761Z,100.00
2023-04-09T17:04:34.979Z,100.00
2023-04-09T17:07:06.806Z,100.00
2023-04-09T17:09:36.072Z,100.00
2023-04-09T17:12:06.101Z,100.00
2023-04-09T17:14:37.040Z,100.00
2023-04-09T17:17:08.431Z,100.00
2023-04-09T17:19:42.708Z,100.00
2023-04-09T17:22:13.552Z,100.00
2023-04-09T17:24:43.228Z,100.00
2023-04-09T17:27:12.438Z,100.00
2023-04-09T17:29:41.986Z,100.00
2023-04-09T17:32:14.057Z,100.00
2023-04-09T17:34:43.390Z,100.00
2023-04-09T17:37:12.824Z,100.00
2023-04-09T17:39:42.227Z,100.00
2023-04-09T17:42:18.151Z,100.00
2023-04-09T17:44:54.120Z,100.00
2023-04-09T17:47:25.052Z,100.00
2023-04-09T17:49:54.939Z,100.00
2023-04-09T17:52:23.995Z,100.00
2023-04-09T17:54:53.292Z,100.00
2023-04-09T17:57:25.333Z,100.00
2023-04-09T17:59:56.779Z,100.00
2023-04-09T18:02:33.733Z,100.00
2023-04-09T18:05:04.621Z,100.00
2023-04-09T18:07:34.687Z,100.00
2023-04-09T18:10:05.154Z,100.00
2023-04-09T18:12:34.753Z,100.00
2023-04-09T18:15:05.141Z,100.00
2023-04-09T18:17:36.268Z,100.00
2023-04-09T18:20:06.809Z,100.00
2023-04-09T18:22:38.265Z,100.00
2023-04-09T18:25:08.275Z,100.00
2023-04-09T18:27:37.879Z,100.00
2023-04-09T18:30:11.060Z,100.00
2023-04-09T18:32:42.064Z,100.00
2023-04-09T18:35:12.248Z,100.00
2023-04-09T18:37:41.897Z,100.00
2023-04-09T18:40:15.530Z,100.00
2023-04-09T18:42:45.191Z,100.00
2023-04-09T18:45:17.818Z,100.00
2023-04-09T18:47:53.212Z,100.00
2023-04-09T18:50:22.763Z,100.00
2023-04-09T18:52:52.110Z,100.00
2023-04-09T18:55:21.552Z,100.00
2023-04-09T18:57:51.414Z,100.00
2023-04-09T19:00:22.549Z,100.00
2023-04-09T19:02:57.131Z,100.00
2023-04-09T19:05:29.708Z,100.00
2023-04-09T19:08:09.047Z,100.00
2023-04-09T19:10:38.590Z,100.00
2023-04-09T19:13:07.956Z,100.00
2023-04-09T19:15:40.076Z,100.00
2023-04-09T19:18:10.798Z,100.00
2023-04-09T19:20:40.214Z,100.00
2023-04-09T19:23:11.997Z,100.00
2023-04-09T19:25:44.135Z,100.00
2023-04-09T19:28:13.383Z,100.00
2023-04-09T19:30:42.520Z,100.00
2023-04-09T19:33:12.951Z,100.00
2023-04-09T19:35:42.322Z,100.00
2023-04-09T19:38:12.238Z,100.00
2023-04-09T19:40:41.633Z,100.00
2023-04-09T19:43:14.029Z,100.00
2023-04-09T19:45:44.129Z,100.00
2023-04-09T19:48:15.165Z,100.00
2023-04-09T19:50:47.577Z,100.00
2023-04-09T19:53:16.834Z,100.00
2023-04-09T19:55:46.558Z,100.00
2023-04-09T19:58:15.893Z,100.00
2023-04-09T20:00:45.229Z,100.00
2023-04-09T20:03:16.143Z,100.00
2023-04-09T20:05:45.725Z,100.00
2023-04-09T20:08:15.921Z,100.00
2023-04-09T20:10:47.393Z,100.00
2023-04-09T20:13:16.605Z,100.00
2023-04-09T20:15:45.800Z,100.00
2023-04-09T20:18:16.582Z,100.00
2023-04-09T20:20:45.773Z,100.00
2023-04-09T20:23:15.176Z,100.00
2023-04-09T20:25:44.283Z,100.00
2023-04-09T20:28:13.327Z,100.00
2023-04-09T20:30:42.925Z,100.00
2023-04-09T20:33:12.224Z,100.00
2023-04-09T20:35:42.684Z,100.00
2023-04-09T20:38:12.332Z,100.00
2023-04-09T20:40:42.072Z,100.00
2023-04-09T20:43:11.530Z,100.00
2023-04-09T20:45:40.848Z,100.00
2023-04-09T20:48:13.415Z,100.00
2023-04-09T20:50:44.096Z,100.00
2023-04-09T20:53:13.349Z,100.00
2023-04-09T20:55:42.780Z,100.00
2023-04-09T20:58:13.633Z,100.00
2023-04-09T21:00:42.730Z,100.00
2023-04-09T21:03:16.697Z,100.00
2023-04-09T21:05:56.707Z,100.00
2023-04-09T21:08:26.157Z,100.00
2023-04-09T21:10:56.087Z,100.00
2023-04-09T21:13:26.707Z,100.00
2023-04-09T21:15:56.002Z,100.00
2023-04-09T21:18:25.185Z,100.00
2023-04-09T21:20:56.266Z,100.00
2023-04-09T21:23:27.261Z,100.00
2023-04-09T21:25:56.693Z,100.00
2023-04-09T21:28:26.366Z,100.00
2023-04-09T21:30:55.549Z,100.00
2023-04-09T21:33:26.627Z,100.00
2023-04-09T21:35:58.692Z,100.00
2023-04-09T21:38:27.771Z,100.00
2023-04-09T21:40:57.471Z,100.00
2023-04-09T21:43:28.325Z,100.00
2023-04-09T21:45:57.798Z,100.00
2023-04-09T21:48:29.166Z,100.00
2023-04-09T21:51:00.104Z,100.00
2023-04-09T21:53:29.357Z,100.00
2023-04-09T21:55:58.772Z,100.00
2023-04-09T21:58:31.641Z,100.00
2023-04-09T22:01:02.565Z,100.00
2023-04-09T22:03:31.819Z,100.00
2023-04-09T22:06:04.221Z,100.00
2023-04-09T22:08:38.484Z,100.00
2023-04-09T22:11:16.568Z,100.00
2023-04-09T22:13:46.221Z,100.00
2023-04-09T22:16:17.244Z,100.00
2023-04-09T22:18:46.661Z,100.00
2023-04-09T22:21:17.922Z,100.00
2023-04-09T22:23:47.160Z,100.00
2023-04-09T22:26:16.969Z,100.00
2023-04-09T22:28:46.164Z,100.00
2023-04-09T22:31:16.707Z,100.00
2023-04-09T22:33:45.741Z,100.00
2023-04-09T22:36:14.872Z,100.00
2023-04-09T22:38:45.822Z,100.00
2023-04-09T22:41:16.061Z,100.00
2023-04-09T22:43:45.459Z,100.00
2023-04-09T22:46:14.972Z,100.00
2023-04-09T22:48:46.619Z,100.00
2023-04-09T22:51:15.756Z,100.00
2023-04-09T22:53:48.382Z,100.00
2023-04-09T22:56:17.593Z,100.00
2023-04-09T22:58:46.836Z,100.00
2023-04-09T23:01:21.904Z,100.00
2023-04-09T23:03:51.741Z,100.00
2023-04-09T23:06:22.587Z,100.00
2023-04-09T23:09:03.276Z,100.00
2023-04-09T23:11:36.518Z,100.00
2023-04-09T23:14:07.145Z,100.00
2023-04-09T23:16:39.696Z,100.00
2023-04-09T23:19:08.898Z,100.00
2023-04-09T23:21:38.642Z,100.00
2023-04-09T23:24:12.062Z,100.00
2023-04-09T23:26:41.436Z,100.00
2023-04-09T23:29:10.339Z,100.00
2023-04-09T23:31:39.505Z,100.00
2023-04-09T23:34:08.817Z,100.00
2023-04-09T23:36:40.585Z,100.00
2023-04-09T23:39:11.098Z,100.00
2023-04-09T23:41:42.743Z,100.00
2023-04-09T23:44:12.022Z,100.00
2023-04-09T23:46:41.797Z,100.00
2023-04-09T23:49:10.901Z,100.00
2023-04-09T23:51:40.096Z,100.00
2023-04-09T23:54:11.316Z,100.00
2023-04-09T23:56:40.628Z,100.00
2023-04-09T23:59:10.180Z,100.00
